CheckWX is a tool to help pilots better visualize weather data.  It is not intended as a substitute for an official pre-flight weather briefing.

20:22:58 UTC

LIRL TAF
Latina Airport
Latina, Italy
TAF LIRL 291400Z 2915/2924 27008KT 9999 SCT020

Jan-29@
15:00 UTC

Jan-29 @ 15:00 UTC

Jan-30@
00:00 UTC

Jan-30 @ 00:00 UTC

TAF LIRL 291400Z 2915/2924 27008KT 9999 SCT020
Wind
  • 270° at 8 KTS
Cloud Levels
  • Scattered at 2,000' AGL